Airfield :







YOU CAN JOIN US ON...

 
LOGIN :

Register | Disclaimer

   EN    FR    IT 

 









Legend :    VFR   Marginal VFR   IFR   Intensive IFR   Very Intensive IFR
Visi :
Ceiling :
>= 8 km
>= 3000ft
5 to 8 km
1000 to 3000 ft
1500m to 5 km
500 to 1000 ft
800 to 1500m
200 to 500 ft
< 800m
< 200 ft
Symbols :   Thunderstorms  Fog  Heavy snow  Heavy precipitations  Wind > 20 kt






- Airport Elevation : 49 ft


KOWD - Norwood Memorial

CURRENT METAR :
  • 302253Z 16021G35KT 10SM -RA BKN020 OVC025 17/13 A2962 RMK AO2 PK WND 15047/2220 SLP028 P0002 T01670128

EXPIRED METARs :
  • 302153Z 16025G33KT 6SM -RA BKN019 OVC024 16/13 A2962 RMK AO2 PK WND 14045/2124 SLP029 P0007 T01610133
  • 302131Z 15024G45KT 4SM RA SCT019 BKN025 OVC033 16/12 A2961 RMK AO2 PK WND 14045/2124 P0005 T01560122
  • 302114Z 16020G34KT 6SM -RA FEW016 BKN030 OVC036 16/12 A2962 RMK AO2 PK WND 15041/2057 P0002 T01560122
  • 302053Z 16026G45KT 2SM -RA SCT016 BKN021 OVC027 16/12 A2965 RMK AO2 PK WND 16046/2007 SLP039 P0019 60047 T01560122 56053

TAF N/A
KZBW FIR / North America



MET'MAP, your aeronautical weather chart ! - Copyright ORBIFLY December 2007 - Disclaimer

ORBIFLY MET'MAP TEAM :

Programming & Development : Alexandra Zaïnal
Concept & original design : Baudouin d'Aumeries
Assistance for programming : Marc-Olivier Méhu
Technical & hardware support : Manuel Goepfert

Contact : metmap@orbifly.com




SOURCES & CREDITS :

   NOAA